Weather at Paris-Beauvais Airport

Public forecast

Using degrees Celsius for public forecast. Weather courtesy of forecast.io.

Current aviation weather report (METAR) for Paris-Beauvais Airport

2024/05/22 05:30 (retrieved 34 minutes ago)

LFOB 220530Z AUTO 24009KT 9000 FEW009 BKN021 13/11 Q1009 TEMPO BKN008

Aviation forecast (TAF) for Paris-Beauvais Airport

2024/05/22 06:21 (retrieved 0 seconds ago)

TAF LFOB 220500Z 2206/2306 24008KT 9999 OVC014 TEMPO 2206/2207 BKN008 BECMG 2207/2209 BKN030 TEMPO 2210/2218 4000 SHRA BKN025TCU PROB40 TEMPO 2210/2216 2000 TSRA BKN025CB TEMPO 2300/2306 4000 BR OVC003 PROB30 TEMPO 2302/2306 0500 FG VV///